Map

Track Data

SID SEASON NUMBER BASIN SUBBASIN NAME ISO_TIME NATURE LAT LON WMO_WIND WMO_PRES WMO_AGENCY TRACK_TYPE DIST2LAND LANDFALL IFLAG USA_AGENCY USA_ATCF_ID USA_LAT USA_LON USA_RECORD USA_STATUS USA_WIND USA_PRES USA_SSHS USA_R34_NE USA_R34_SE USA_R34_SW USA_R34_NW USA_R50_NE USA_R50_SE USA_R50_SW USA_R50_NW USA_R64_NE USA_R64_SE USA_R64_SW USA_R64_NW USA_POCI USA_ROCI USA_RMW USA_EYE TOKYO_LAT TOKYO_LON TOKYO_GRADE TOKYO_WIND TOKYO_PRES TOKYO_R50_DIR TOKYO_R50_LONG TOKYO_R50_SHORT TOKYO_R30_DIR TOKYO_R30_LONG TOKYO_R30_SHORT TOKYO_LAND CMA_LAT CMA_LON CMA_CAT CMA_WIND CMA_PRES HKO_LAT HKO_LON HKO_CAT HKO_WIND HKO_PRES NEWDELHI_LAT NEWDELHI_LON NEWDELHI_GRADE NEWDELHI_WIND NEWDELHI_PRES NEWDELHI_CI NEWDELHI_DP NEWDELHI_POCI REUNION_LAT REUNION_LON REUNION_TYPE REUNION_WIND REUNION_PRES REUNION_TNUM REUNION_CI REUNION_RMW REUNION_R34_NE REUNION_R34_SE REUNION_R34_SW REUNION_R34_NW REUNION_R50_NE REUNION_R50_SE REUNION_R50_SW REUNION_R50_NW REUNION_R64_NE REUNION_R64_SE REUNION_R64_SW REUNION_R64_NW BOM_LAT BOM_LON BOM_TYPE BOM_WIND BOM_PRES BOM_TNUM BOM_CI BOM_RMW BOM_R34_NE BOM_R34_SE BOM_R34_SW BOM_R34_NW BOM_R50_NE BOM_R50_SE BOM_R50_SW BOM_R50_NW BOM_R64_NE BOM_R64_SE BOM_R64_SW BOM_R64_NW BOM_ROCI BOM_POCI BOM_EYE BOM_POS_METHOD BOM_PRES_METHOD NADI_LAT NADI_LON NADI_CAT NADI_WIND NADI_PRES WELLINGTON_LAT WELLINGTON_LON WELLINGTON_WIND WELLINGTON_PRES DS824_LAT DS824_LON DS824_STAGE DS824_WIND DS824_PRES TD9636_LAT TD9636_LON TD9636_STAGE TD9636_WIND TD9636_PRES TD9635_LAT TD9635_LON TD9635_WIND TD9635_PRES TD9635_ROCI NEUMANN_LAT NEUMANN_LON NEUMANN_CLASS NEUMANN_WIND NEUMANN_PRES MLC_LAT MLC_LON MLC_CLASS MLC_WIND MLC_PRES USA_GUST BOM_GUST BOM_GUST_PER REUNION_GUST REUNION_GUST_PER USA_SEAHGT USA_SEARAD_NE USA_SEARAD_SE USA_SEARAD_SW USA_SEARAD_NW STORM_SPEED STORM_DIR
1902182N20124 1902 21 WP MM NOT_NAMED 1902-06-30 16:00:00 NR 20.2000 124.400 main 298 298 __________O___ -1 20.2000 124.400 7 17 11
1902182N20124 1902 21 WP MM NOT_NAMED 1902-06-30 18:00:00 NR 20.7498 124.512 main 345 353 __________P___ -1 20.7498 124.512 7 17 11
1902182N20124 1902 21 WP MM NOT_NAMED 1902-06-30 21:00:00 NR 21.5558 124.688 main 378 362 __________P___ -1 21.5558 124.688 7 16 13
1902182N20124 1902 21 WP MM NOT_NAMED 1902-07-01 00:00:00 NR 22.3138 124.885 main 369 364 __________P___ -1 22.3138 124.885 7 15 15
1902182N20124 1902 21 WP MM NOT_NAMED 1902-07-01 03:00:00 NR 22.9950 125.114 main 366 361 __________P___ -1 22.9950 125.114 7 14 18
1902182N20124 1902 21 WP MM NOT_NAMED 1902-07-01 04:00:00 NR 23.2000 125.200 main 365 361 __________O___ -1 23.2000 125.200 3 13 23
1902182N20124 1902 21 WP MM NOT_NAMED 1902-07-01 06:00:00 NR 23.5735 125.387 main 369 366 __________P___ -1 23.5735 125.387 3 12 28
1902182N20124 1902 21 WP MM NOT_NAMED 1902-07-01 09:00:00 NR 24.0583 125.704 main 387 387 __________P___ -1 24.0583 125.704 3 11 34
1902182N20124 1902 21 WP MM NOT_NAMED 1902-07-01 12:00:00 NR 24.4804 126.063 main 417 415 __________P___ -1 24.4804 126.063 3 11 40
1902182N20124 1902 21 WP MM NOT_NAMED 1902-07-01 15:00:00 NR 24.8713 126.460 main 453 453 __________P___ -1 24.8713 126.460 3 11 43
1902182N20124 1902 21 WP MM NOT_NAMED 1902-07-01 16:00:00 NR 25.0000 126.600 main 463 463 __________O___ -1 25.0000 126.600 4 11 43
1902182N20124 1902 21 WP MM NOT_NAMED 1902-07-01 18:00:00 NR 25.2807 126.888 main 493 493 __________P___ -1 25.2807 126.888 4 12 45
1902182N20124 1902 21 WP MM NOT_NAMED 1902-07-01 21:00:00 NR 25.6893 127.352 main 547 547 __________P___ -1 25.6893 127.352 4 12 47
1902182N20124 1902 21 WP MM NOT_NAMED 1902-07-02 00:00:00 NR 26.0854 127.840 main 594 553 __________P___ -1 26.0854 127.840 4 12 48
1902182N20124 1902 21 WP MM NOT_NAMED 1902-07-02 03:00:00 NR 26.4724 128.336 main 553 535 __________P___ -1 26.4724 128.336 4 12 49
1902182N20124 1902 21 WP MM NOT_NAMED 1902-07-02 04:00:00 NR 26.6000 128.500 main 535 493 __________O___ -1 26.6000 128.500 4 11 48
1902182N20124 1902 21 WP MM NOT_NAMED 1902-07-02 06:00:00 NR 26.8578 128.810 main 493 445 __________P___ -1 26.8578 128.810 4 11 47
1902182N20124 1902 21 WP MM NOT_NAMED 1902-07-02 09:00:00 NR 27.2385 129.273 main 445 391 __________P___ -1 27.2385 129.273 4 11 48
1902182N20124 1902 21 WP MM NOT_NAMED 1902-07-02 12:00:00 NR 27.6123 129.745 main 391 338 __________P___ -1 27.6123 129.745 4 11 49
1902182N20124 1902 21 WP MM NOT_NAMED 1902-07-02 15:00:00 NR 27.9792 130.232 main 338 324 __________P___ -1 27.9792 130.232 4 11 50
1902182N20124 1902 21 WP MM NOT_NAMED 1902-07-02 16:00:00 NR 28.1000 130.400 main 324 301 __________O___ -1 28.1000 130.400 4 12 52
1902182N20124 1902 21 WP MM NOT_NAMED 1902-07-02 18:00:00 NR 28.3393 130.745 main 301 261 __________P___ -1 28.3393 130.745 4 12 53
1902182N20124 1902 21 WP MM NOT_NAMED 1902-07-02 21:00:00 NR 28.6930 131.283 main 263 243 __________P___ -1 28.6930 131.283 4 12 54
1902182N20124 1902 21 WP MM NOT_NAMED 1902-07-03 00:00:00 NR 29.0416 131.840 main 246 236 __________P___ -1 29.0416 131.840 4 12 55
1902182N20124 1902 21 WP MM NOT_NAMED 1902-07-03 03:00:00 NR 29.3859 132.409 main 241 236 __________P___ -1 29.3859 132.409 4 12 55
1902182N20124 1902 21 WP MM NOT_NAMED 1902-07-03 04:00:00 NR 29.5000 132.600 main 241 __________O___ -1 29.5000 132.600 4 12 56

Digital Typhoon Data and Search

About IBTrACS Database

This database is a web-friendly format of International Best Track Archive for Climate Stewardship (IBTrACS), a global best track data archive curated by NOAA dating back to 1842.

Updated: 2021-10-21